createdAt,value
2018-12-01T00:00:57.841Z,976.41
2018-12-01T00:01:57.760Z,976.44
2018-12-01T00:02:57.673Z,976.47
2018-12-01T00:03:57.599Z,976.47
2018-12-01T00:04:57.508Z,976.44
2018-12-01T00:05:57.453Z,976.43
2018-12-01T00:06:57.344Z,976.45
2018-12-01T00:07:57.268Z,976.43
2018-12-01T00:08:57.182Z,976.42
2018-12-01T00:09:57.101Z,976.40
2018-12-01T00:10:57.014Z,976.40
2018-12-01T00:11:57.940Z,976.39
2018-12-01T00:12:56.852Z,976.40
2018-12-01T00:13:56.775Z,976.38
2018-12-01T00:14:56.685Z,976.37
2018-12-01T00:15:57.703Z,976.38
2018-12-01T00:16:56.558Z,976.36
2018-12-01T00:17:56.468Z,976.44
2018-12-01T00:18:56.361Z,976.41
2018-12-01T00:19:57.299Z,976.46
2018-12-01T00:20:56.189Z,976.42
2018-12-01T00:21:56.116Z,976.42
2018-12-01T00:22:56.027Z,976.44
2018-12-01T00:23:55.950Z,976.48
2018-12-01T00:24:55.858Z,976.50
2018-12-01T00:25:55.787Z,976.50
2018-12-01T00:26:55.700Z,976.50
2018-12-01T00:27:55.623Z,976.51
2018-12-01T00:28:55.532Z,976.49
2018-12-01T00:29:55.459Z,976.47
2018-12-01T00:30:55.369Z,976.48
2018-12-01T00:31:55.294Z,976.47
2018-12-01T00:32:55.202Z,976.47
2018-12-01T00:33:55.134Z,976.45
2018-12-01T00:34:55.043Z,976.49
2018-12-01T00:35:54.965Z,976.42
2018-12-01T00:36:54.872Z,976.46
2018-12-01T00:37:54.800Z,976.49
2018-12-01T00:38:54.713Z,976.44
2018-12-01T00:39:54.636Z,976.47
2018-12-01T00:40:54.549Z,976.45
2018-12-01T00:41:54.471Z,976.40
2018-12-01T00:42:54.381Z,976.43
2018-12-01T00:43:54.308Z,976.42
2018-12-01T00:44:54.216Z,976.42
2018-12-01T00:45:54.148Z,976.44
2018-12-01T00:46:54.054Z,976.48
2018-12-01T00:47:53.985Z,976.46
2018-12-01T00:48:53.888Z,976.43
2018-12-01T00:49:53.813Z,976.46
2018-12-01T00:50:53.730Z,976.46
2018-12-01T00:51:53.644Z,976.45
2018-12-01T00:52:53.560Z,976.44
2018-12-01T00:53:53.486Z,976.48
2018-12-01T00:54:53.418Z,976.43
2018-12-01T00:55:53.326Z,976.43
2018-12-01T00:56:53.229Z,976.43
2018-12-01T00:57:53.154Z,976.43
2018-12-01T00:58:53.067Z,976.46
2018-12-01T00:59:52.997Z,976.47
2018-12-01T01:00:52.903Z,976.48
2018-12-01T01:01:52.828Z,976.50
2018-12-01T01:02:52.737Z,976.51
2018-12-01T01:03:52.667Z,976.55
2018-12-01T01:04:52.575Z,976.59
2018-12-01T01:05:52.498Z,976.61
2018-12-01T01:06:52.411Z,976.62
2018-12-01T01:07:52.336Z,976.63
2018-12-01T01:08:52.253Z,976.61
2018-12-01T01:09:52.173Z,976.66
2018-12-01T01:10:52.081Z,976.65
2018-12-01T01:11:52.007Z,976.65
2018-12-01T01:12:51.916Z,976.62
2018-12-01T01:13:51.841Z,976.63
2018-12-01T01:14:51.750Z,976.65
2018-12-01T01:15:51.678Z,976.65
2018-12-01T01:16:51.592Z,976.59
2018-12-01T01:17:51.615Z,976.61
2018-12-01T01:18:51.423Z,976.62
2018-12-01T01:19:51.347Z,976.62
2018-12-01T01:20:51.258Z,976.60
2018-12-01T01:21:51.192Z,976.61
2018-12-01T01:22:51.099Z,976.60
2018-12-01T01:23:51.022Z,976.58
2018-12-01T01:24:50.931Z,976.56
2018-12-01T01:25:50.859Z,976.56
2018-12-01T01:26:50.777Z,976.57
2018-12-01T01:27:50.694Z,976.58
2018-12-01T01:28:50.601Z,976.60
2018-12-01T01:29:50.530Z,976.56
2018-12-01T01:30:50.440Z,976.61
2018-12-01T01:31:50.364Z,976.60
2018-12-01T01:32:50.316Z,976.57
2018-12-01T01:33:50.202Z,976.56
2018-12-01T01:34:50.110Z,976.60
2018-12-01T01:35:50.041Z,976.63
2018-12-01T01:36:49.947Z,976.61
2018-12-01T01:37:49.872Z,976.61
2018-12-01T01:38:49.779Z,976.63
2018-12-01T01:39:49.708Z,976.60
2018-12-01T01:40:49.621Z,976.63
2018-12-01T01:41:49.546Z,976.63
2018-12-01T01:42:49.456Z,976.63
2018-12-01T01:43:49.391Z,976.67
2018-12-01T01:44:49.290Z,976.67
2018-12-01T01:45:49.224Z,976.67
2018-12-01T01:46:49.128Z,976.69
2018-12-01T01:47:49.053Z,976.63
2018-12-01T01:48:48.965Z,976.64
2018-12-01T01:49:48.884Z,976.59
2018-12-01T01:50:48.799Z,976.60
2018-12-01T01:51:48.737Z,976.62
2018-12-01T01:52:48.633Z,976.68
2018-12-01T01:53:48.565Z,976.69
2018-12-01T01:54:48.473Z,976.70
2018-12-01T01:55:48.394Z,976.65
2018-12-01T01:56:48.308Z,976.61
2018-12-01T01:57:48.240Z,976.63
2018-12-01T01:58:48.140Z,976.69
2018-12-01T01:59:48.071Z,976.68
2018-12-01T02:00:47.982Z,976.65
2018-12-01T02:01:47.904Z,976.69
2018-12-01T02:02:47.821Z,976.66
2018-12-01T02:03:47.742Z,976.66
2018-12-01T02:04:47.654Z,976.64
2018-12-01T02:05:47.579Z,976.68
2018-12-01T02:06:47.492Z,976.65
2018-12-01T02:07:47.415Z,976.66
2018-12-01T02:08:47.327Z,976.64
2018-12-01T02:09:47.251Z,976.64
2018-12-01T02:10:47.164Z,976.67
2018-12-01T02:11:47.085Z,976.64
2018-12-01T02:12:46.996Z,976.65
2018-12-01T02:13:46.929Z,976.65
2018-12-01T02:14:46.833Z,976.64
2018-12-01T02:15:46.763Z,976.65
2018-12-01T02:16:46.670Z,976.64
2018-12-01T02:17:46.601Z,976.68
2018-12-01T02:18:46.508Z,976.67
2018-12-01T02:19:46.436Z,976.66
2018-12-01T02:20:46.344Z,976.66
2018-12-01T02:21:46.271Z,976.64
2018-12-01T02:22:46.181Z,976.66
2018-12-01T02:23:46.099Z,976.62
2018-12-01T02:24:46.014Z,976.63
2018-12-01T02:25:45.942Z,976.60
2018-12-01T02:26:45.853Z,976.63
2018-12-01T02:27:45.780Z,976.62
2018-12-01T02:28:45.691Z,976.65
2018-12-01T02:29:45.613Z,976.64
2018-12-01T02:30:45.526Z,976.66
2018-12-01T02:31:45.451Z,976.62
2018-12-01T02:32:45.361Z,976.64
2018-12-01T02:33:45.290Z,976.66
2018-12-01T02:34:45.201Z,976.66
2018-12-01T02:35:45.126Z,976.69
2018-12-01T02:36:45.032Z,976.69
2018-12-01T02:37:44.959Z,976.65
2018-12-01T02:38:44.876Z,976.68
2018-12-01T02:39:44.789Z,976.72
2018-12-01T02:40:44.710Z,976.70
2018-12-01T02:41:44.633Z,976.73
2018-12-01T02:42:44.540Z,976.75
2018-12-01T02:43:44.468Z,976.73
2018-12-01T02:44:44.382Z,976.69
2018-12-01T02:45:44.304Z,976.74
2018-12-01T02:46:44.215Z,976.76
2018-12-01T02:47:44.143Z,976.74
2018-12-01T02:48:44.058Z,976.78
2018-12-01T02:49:43.976Z,976.76
2018-12-01T02:50:43.890Z,976.74
2018-12-01T02:51:43.811Z,976.74
2018-12-01T02:52:43.727Z,976.74
2018-12-01T02:53:43.650Z,976.77
2018-12-01T02:54:43.562Z,976.78
2018-12-01T02:55:43.484Z,976.78
2018-12-01T02:56:43.394Z,976.73
2018-12-01T02:57:43.324Z,976.79
2018-12-01T02:58:43.234Z,976.76
2018-12-01T02:59:43.155Z,976.78
2018-12-01T03:00:43.066Z,976.80
2018-12-01T03:01:42.993Z,976.78
2018-12-01T03:02:42.905Z,976.74
2018-12-01T03:03:42.828Z,976.74
2018-12-01T03:04:42.737Z,976.76
2018-12-01T03:05:42.673Z,976.75
2018-12-01T03:06:42.580Z,976.77
2018-12-01T03:07:42.504Z,976.76
2018-12-01T03:08:42.417Z,976.79
2018-12-01T03:09:42.341Z,976.78
2018-12-01T03:10:42.255Z,976.82
2018-12-01T03:11:42.171Z,976.84
2018-12-01T03:12:42.081Z,976.85
2018-12-01T03:13:42.017Z,976.87
2018-12-01T03:14:41.922Z,976.89
2018-12-01T03:15:41.846Z,976.91
2018-12-01T03:16:41.756Z,976.89
2018-12-01T03:17:41.682Z,976.91
2018-12-01T03:18:41.592Z,976.91
2018-12-01T03:19:41.519Z,976.92
2018-12-01T03:20:41.435Z,976.94
2018-12-01T03:21:41.359Z,976.96
2018-12-01T03:22:41.267Z,976.97
2018-12-01T03:23:41.188Z,976.98
2018-12-01T03:24:41.103Z,977.01
2018-12-01T03:25:41.029Z,977.01
2018-12-01T03:26:40.938Z,977.01
2018-12-01T03:27:40.870Z,977.04
2018-12-01T03:28:40.784Z,977.02
2018-12-01T03:29:40.697Z,977.04
2018-12-01T03:30:40.615Z,976.99
2018-12-01T03:31:40.540Z,977.01
2018-12-01T03:32:40.450Z,977.01
2018-12-01T03:33:40.370Z,976.99
2018-12-01T03:34:40.287Z,977.00
2018-12-01T03:35:40.214Z,976.99
2018-12-01T03:36:40.119Z,976.96
2018-12-01T03:37:40.047Z,976.97
2018-12-01T03:38:39.957Z,977.00
2018-12-01T03:39:39.883Z,976.98
2018-12-01T03:40:39.790Z,976.99
2018-12-01T03:41:39.722Z,976.97
2018-12-01T03:42:39.632Z,977.00
2018-12-01T03:43:39.555Z,977.05
2018-12-01T03:44:39.469Z,977.02
2018-12-01T03:45:39.393Z,977.02
2018-12-01T03:46:39.306Z,977.03
2018-12-01T03:47:39.226Z,977.07
2018-12-01T03:48:39.141Z,977.10
2018-12-01T03:49:40.059Z,977.12
2018-12-01T03:50:38.982Z,977.09
2018-12-01T03:51:38.899Z,977.07
2018-12-01T03:52:38.805Z,977.12
2018-12-01T03:53:38.735Z,977.11
2018-12-01T03:54:38.654Z,977.14
2018-12-01T03:55:38.577Z,977.14
2018-12-01T03:56:38.498Z,977.09
2018-12-01T03:57:38.408Z,977.11
2018-12-01T03:58:38.323Z,977.14
2018-12-01T03:59:38.246Z,977.16
2018-12-01T04:00:38.156Z,977.17
2018-12-01T04:01:38.082Z,977.17
2018-12-01T04:02:37.990Z,977.22
2018-12-01T04:03:37.925Z,977.24
2018-12-01T04:04:37.834Z,977.26
2018-12-01T04:05:37.753Z,977.25
2018-12-01T04:06:37.665Z,977.26
2018-12-01T04:07:37.596Z,977.25
2018-12-01T04:08:37.497Z,977.25
2018-12-01T04:09:37.423Z,977.25
2018-12-01T04:10:37.337Z,977.25
2018-12-01T04:11:37.261Z,977.23
2018-12-01T04:12:37.175Z,977.24
2018-12-01T04:13:37.103Z,977.28
2018-12-01T04:14:37.009Z,977.23
2018-12-01T04:15:36.937Z,977.25
2018-12-01T04:16:36.843Z,977.23
2018-12-01T04:17:36.776Z,977.24
2018-12-01T04:18:36.684Z,977.23
2018-12-01T04:19:36.613Z,977.21
2018-12-01T04:20:36.526Z,977.23
2018-12-01T04:21:36.447Z,977.19
2018-12-01T04:22:36.357Z,977.18
2018-12-01T04:23:36.281Z,977.20
2018-12-01T04:24:36.190Z,977.22
2018-12-01T04:25:36.121Z,977.22
2018-12-01T04:26:36.029Z,977.22
2018-12-01T04:27:35.958Z,977.17
2018-12-01T04:28:35.866Z,977.14
2018-12-01T04:29:35.797Z,977.17
2018-12-01T04:30:35.706Z,977.16
2018-12-01T04:31:35.629Z,977.14
2018-12-01T04:32:35.550Z,977.14
2018-12-01T04:33:35.467Z,977.13
2018-12-01T04:34:35.383Z,977.14
2018-12-01T04:35:35.299Z,977.15
2018-12-01T04:36:35.216Z,977.14
2018-12-01T04:37:35.143Z,977.11
2018-12-01T04:38:35.051Z,977.10
2018-12-01T04:39:34.975Z,977.14
2018-12-01T04:40:34.890Z,977.10
2018-12-01T04:41:34.814Z,977.09
2018-12-01T04:42:34.720Z,977.09
2018-12-01T04:43:34.649Z,977.12
2018-12-01T04:44:34.558Z,977.10
2018-12-01T04:45:34.487Z,977.10
2018-12-01T04:46:34.397Z,977.13
2018-12-01T04:47:34.329Z,977.13
2018-12-01T04:48:34.234Z,977.15
2018-12-01T04:49:34.160Z,977.22
2018-12-01T04:50:34.069Z,977.27
2018-12-01T04:51:33.998Z,977.26
2018-12-01T04:52:33.906Z,977.26
2018-12-01T04:53:34.835Z,977.29
2018-12-01T04:54:33.745Z,977.27
2018-12-01T04:55:33.667Z,977.30
2018-12-01T04:56:33.576Z,977.28
2018-12-01T04:57:33.509Z,977.26
2018-12-01T04:58:33.415Z,977.25
2018-12-01T04:59:33.337Z,977.29
2018-12-01T05:00:33.253Z,977.29
2018-12-01T05:01:33.180Z,977.30
2018-12-01T05:02:33.087Z,977.29
2018-12-01T05:03:33.015Z,977.30
2018-12-01T05:04:32.924Z,977.33
2018-12-01T05:05:32.852Z,977.36
2018-12-01T05:06:32.758Z,977.37
2018-12-01T05:07:32.708Z,977.39
2018-12-01T05:08:32.600Z,977.39
2018-12-01T05:09:32.525Z,977.36
2018-12-01T05:10:32.439Z,977.34
2018-12-01T05:11:32.366Z,977.35
2018-12-01T05:12:32.270Z,977.35
2018-12-01T05:13:32.198Z,977.37
2018-12-01T05:14:32.106Z,977.40
2018-12-01T05:15:32.027Z,977.39
2018-12-01T05:16:31.941Z,977.40
2018-12-01T05:17:31.870Z,977.39
2018-12-01T05:18:31.778Z,977.40
2018-12-01T05:19:31.703Z,977.41
2018-12-01T05:20:31.615Z,977.42
2018-12-01T05:21:31.545Z,977.42
2018-12-01T05:22:31.450Z,977.38
2018-12-01T05:23:31.378Z,977.39
2018-12-01T05:24:31.291Z,977.36
2018-12-01T05:25:31.214Z,977.37
2018-12-01T05:26:31.124Z,977.35
2018-12-01T05:27:31.051Z,977.38
2018-12-01T05:28:30.961Z,977.41
2018-12-01T05:29:30.885Z,977.44
2018-12-01T05:30:30.797Z,977.48
2018-12-01T05:31:30.723Z,977.49
2018-12-01T05:32:30.635Z,977.53
2018-12-01T05:33:30.559Z,977.56
2018-12-01T05:34:30.469Z,977.51
2018-12-01T05:35:30.397Z,977.51
2018-12-01T05:36:30.301Z,977.55
2018-12-01T05:37:30.231Z,977.54
2018-12-01T05:38:30.144Z,977.54
2018-12-01T05:39:30.068Z,977.54
2018-12-01T05:40:29.976Z,977.54
2018-12-01T05:41:29.905Z,977.55
2018-12-01T05:42:29.811Z,977.54
2018-12-01T05:43:29.744Z,977.56
2018-12-01T05:44:29.651Z,977.54
2018-12-01T05:45:29.578Z,977.55
2018-12-01T05:46:29.488Z,977.58
2018-12-01T05:47:29.411Z,977.56
2018-12-01T05:48:29.322Z,977.59
2018-12-01T05:49:29.250Z,977.59
2018-12-01T05:50:29.162Z,977.59
2018-12-01T05:51:29.083Z,977.59
2018-12-01T05:52:28.995Z,977.61
2018-12-01T05:53:28.914Z,977.62
2018-12-01T05:54:28.841Z,977.62
2018-12-01T05:55:28.755Z,977.64
2018-12-01T05:56:28.672Z,977.63
2018-12-01T05:57:28.589Z,977.62
2018-12-01T05:58:28.508Z,977.61
2018-12-01T05:59:28.419Z,977.64
2018-12-01T06:00:28.345Z,977.67
2018-12-01T06:01:28.261Z,977.67
2018-12-01T06:02:28.187Z,977.67
2018-12-01T06:03:28.091Z,977.71
2018-12-01T06:04:28.018Z,977.69
2018-12-01T06:05:27.930Z,977.67
2018-12-01T06:06:27.852Z,977.68
2018-12-01T06:07:27.763Z,977.66
2018-12-01T06:08:27.688Z,977.64
2018-12-01T06:09:27.604Z,977.62
2018-12-01T06:10:27.525Z,977.64
2018-12-01T06:11:27.433Z,977.60
2018-12-01T06:12:27.363Z,977.63
2018-12-01T06:13:27.272Z,977.66
2018-12-01T06:14:27.194Z,977.64
2018-12-01T06:15:27.108Z,977.61
2018-12-01T06:16:27.038Z,977.64
2018-12-01T06:17:26.943Z,977.65
2018-12-01T06:18:26.866Z,977.64
2018-12-01T06:19:26.785Z,977.64
2018-12-01T06:20:26.705Z,977.63
2018-12-01T06:21:26.624Z,977.64
2018-12-01T06:22:26.540Z,977.62
2018-12-01T06:23:26.452Z,977.61
2018-12-01T06:24:26.387Z,977.62
2018-12-01T06:25:26.292Z,977.66
2018-12-01T06:26:26.278Z,977.67
2018-12-01T06:27:26.119Z,977.63
2018-12-01T06:28:26.080Z,977.63
2018-12-01T06:29:25.962Z,977.68
2018-12-01T06:30:25.991Z,977.69
2018-12-01T06:31:25.798Z,977.73
2018-12-01T06:32:25.799Z,977.74
2018-12-01T06:33:25.631Z,977.71
2018-12-01T06:34:25.608Z,977.78
2018-12-01T06:35:25.467Z,977.80
2018-12-01T06:36:25.416Z,977.81
2018-12-01T06:37:25.305Z,977.84
2018-12-01T06:38:25.327Z,977.80
2018-12-01T06:39:25.142Z,977.83
2018-12-01T06:40:25.134Z,977.89
2018-12-01T06:41:25.022Z,977.86
2018-12-01T06:42:24.945Z,977.90
2018-12-01T06:43:24.813Z,977.85
2018-12-01T06:44:24.809Z,977.91
2018-12-01T06:45:24.650Z,977.91
2018-12-01T06:46:24.662Z,977.89
2018-12-01T06:47:24.482Z,977.91
2018-12-01T06:48:24.469Z,977.92
2018-12-01T06:49:24.333Z,977.94
2018-12-01T06:50:24.283Z,977.94
2018-12-01T06:51:24.158Z,977.96
2018-12-01T06:52:24.193Z,977.97
2018-12-01T06:53:24.000Z,977.98
2018-12-01T06:54:24.001Z,978.02
2018-12-01T06:55:23.836Z,978.01
2018-12-01T06:56:23.820Z,978.05
2018-12-01T06:57:23.670Z,978.07
2018-12-01T06:58:23.614Z,978.08
2018-12-01T06:59:23.503Z,978.10
2018-12-01T07:00:23.531Z,978.12
2018-12-01T07:01:23.337Z,978.09
2018-12-01T07:02:23.334Z,978.06
2018-12-01T07:03:23.172Z,978.03
2018-12-01T07:04:23.147Z,978.08
2018-12-01T07:05:23.014Z,978.09
2018-12-01T07:06:22.947Z,978.10
2018-12-01T07:07:22.846Z,978.10
2018-12-01T07:08:22.861Z,978.13
2018-12-01T07:09:22.677Z,978.11
2018-12-01T07:10:22.671Z,978.12
2018-12-01T07:11:22.517Z,978.13
2018-12-01T07:12:22.479Z,978.17
2018-12-01T07:13:22.355Z,978.17
2018-12-01T07:14:22.387Z,978.15
2018-12-01T07:15:22.189Z,978.17
2018-12-01T07:16:22.208Z,978.20
2018-12-01T07:17:22.019Z,978.22
2018-12-01T07:18:22.005Z,978.25
2018-12-01T07:19:21.858Z,978.19
2018-12-01T07:20:21.814Z,978.24
2018-12-01T07:21:21.695Z,978.26
2018-12-01T07:22:21.813Z,978.28
2018-12-01T07:23:21.533Z,978.25
2018-12-01T07:24:21.624Z,978.28
2018-12-01T07:25:21.372Z,978.31
2018-12-01T07:26:21.436Z,978.36
2018-12-01T07:27:21.202Z,978.36
2018-12-01T07:28:21.515Z,978.37
2018-12-01T07:29:21.040Z,978.34
2018-12-01T07:30:21.054Z,978.37
2018-12-01T07:31:20.879Z,978.31
2018-12-01T07:32:20.868Z,978.32
2018-12-01T07:33:20.714Z,978.33
2018-12-01T07:34:20.632Z,978.34
2018-12-01T07:35:20.549Z,978.36
2018-12-01T07:36:20.484Z,978.36
2018-12-01T07:37:20.383Z,978.33
2018-12-01T07:38:20.403Z,978.36
2018-12-01T07:39:20.220Z,978.36
2018-12-01T07:40:20.205Z,978.35
2018-12-01T07:41:20.056Z,978.33
2018-12-01T07:42:20.045Z,978.33
2018-12-01T07:43:19.892Z,978.33
2018-12-01T07:44:19.924Z,978.33
2018-12-01T07:45:19.737Z,978.36
2018-12-01T07:46:19.731Z,978.37
2018-12-01T07:47:19.950Z,978.34
2018-12-01T07:48:19.546Z,978.36
2018-12-01T07:49:19.405Z,978.37
2018-12-01T07:50:19.318Z,978.39
2018-12-01T07:51:19.254Z,978.47
2018-12-01T07:52:19.154Z,978.54
2018-12-01T07:53:19.166Z,978.54
2018-12-01T07:54:18.993Z,978.49
2018-12-01T07:55:18.980Z,978.59
2018-12-01T07:56:18.833Z,978.59
2018-12-01T07:57:18.805Z,978.55
2018-12-01T07:58:18.664Z,978.58
2018-12-01T07:59:18.586Z,978.56
2018-12-01T08:00:18.517Z,978.58
2018-12-01T08:01:18.427Z,978.57
2018-12-01T08:02:18.343Z,978.58
2018-12-01T08:03:18.256Z,978.54
2018-12-01T08:04:19.242Z,978.58
2018-12-01T08:05:18.091Z,978.58
2018-12-01T08:06:54.072Z,978.58
2018-12-01T08:07:17.930Z,978.56
2018-12-01T08:08:17.843Z,978.56
2018-12-01T08:09:17.837Z,978.56
2018-12-01T08:10:17.685Z,978.52
2018-12-01T08:11:17.648Z,978.54
2018-12-01T08:12:17.522Z,978.53
2018-12-01T08:13:17.556Z,978.47
2018-12-01T08:14:17.365Z,978.46
2018-12-01T08:15:17.364Z,978.48
2018-12-01T08:16:17.194Z,978.51
2018-12-01T08:17:17.180Z,978.48
2018-12-01T08:18:17.032Z,978.49
2018-12-01T08:19:16.983Z,978.49
2018-12-01T08:20:16.867Z,978.44
2018-12-01T08:21:16.899Z,978.45
2018-12-01T08:22:16.707Z,978.48
2018-12-01T08:23:16.623Z,978.48
2018-12-01T08:24:16.539Z,978.46
2018-12-01T08:25:16.509Z,978.41
2018-12-01T08:26:16.385Z,978.41
2018-12-01T08:27:16.317Z,978.46
2018-12-01T08:28:16.216Z,978.44
2018-12-01T08:29:16.148Z,978.43
2018-12-01T08:30:16.055Z,978.48
2018-12-01T08:31:15.978Z,978.46
2018-12-01T08:32:15.900Z,978.49
2018-12-01T08:33:15.818Z,978.49
2018-12-01T08:34:15.726Z,978.50
2018-12-01T08:35:15.654Z,978.46
2018-12-01T08:36:15.575Z,978.48
2018-12-01T08:37:15.492Z,978.51
2018-12-01T08:38:15.402Z,978.47
2018-12-01T08:39:15.369Z,978.50
2018-12-01T08:40:15.240Z,978.56
2018-12-01T08:41:15.181Z,978.50
2018-12-01T08:42:15.078Z,978.49
2018-12-01T08:43:15.009Z,978.52
2018-12-01T08:44:14.991Z,978.47
2018-12-01T08:45:14.837Z,978.47
2018-12-01T08:46:14.804Z,978.48
2018-12-01T08:47:14.680Z,978.45
2018-12-01T08:48:14.609Z,978.47
2018-12-01T08:49:14.511Z,978.45
2018-12-01T08:50:14.523Z,978.48
2018-12-01T08:51:14.348Z,978.44
2018-12-01T08:52:14.332Z,978.39
2018-12-01T08:53:14.185Z,978.41
2018-12-01T08:54:14.140Z,978.37
2018-12-01T08:55:14.022Z,978.38
2018-12-01T08:56:14.050Z,978.40
2018-12-01T08:57:13.864Z,978.40
2018-12-01T08:58:13.859Z,978.45
2018-12-01T08:59:13.697Z,978.45
2018-12-01T09:00:13.669Z,978.49
2018-12-01T09:01:13.536Z,978.46
2018-12-01T09:02:13.454Z,978.44
2018-12-01T09:03:13.375Z,978.44
2018-12-01T09:04:13.848Z,978.45
2018-12-01T09:05:13.220Z,978.46
2018-12-01T09:06:13.197Z,978.47
2018-12-01T09:07:13.052Z,978.48
2018-12-01T09:08:12.968Z,978.48
2018-12-01T09:09:12.907Z,978.45
2018-12-01T09:10:12.810Z,978.49
2018-12-01T09:11:12.728Z,978.43
2018-12-01T09:12:12.724Z,978.44
2018-12-01T09:13:12.562Z,978.41
2018-12-01T09:14:12.534Z,978.42
2018-12-01T09:15:12.409Z,978.47
2018-12-01T09:16:12.343Z,978.46
2018-12-01T09:17:12.245Z,978.42
2018-12-01T09:18:12.252Z,978.46
2018-12-01T09:19:12.077Z,978.47
2018-12-01T09:20:12.060Z,978.48
2018-12-01T09:21:11.918Z,978.47
2018-12-01T09:22:11.869Z,978.44
2018-12-01T09:23:11.757Z,978.44
2018-12-01T09:24:11.777Z,978.42
2018-12-01T09:25:11.603Z,978.44
2018-12-01T09:26:11.587Z,978.45
2018-12-01T09:27:11.433Z,978.41
2018-12-01T09:28:11.396Z,978.42
2018-12-01T09:29:11.273Z,978.40
2018-12-01T09:30:11.304Z,978.38
2018-12-01T09:31:11.110Z,978.38
2018-12-01T09:32:11.116Z,978.37
2018-12-01T09:33:10.956Z,978.34
2018-12-01T09:34:10.922Z,978.39
2018-12-01T09:35:10.792Z,978.39
2018-12-01T09:36:10.730Z,978.37
2018-12-01T09:37:10.632Z,978.42
2018-12-01T09:38:10.642Z,978.36
2018-12-01T09:39:10.471Z,978.38
2018-12-01T09:40:10.449Z,978.37
2018-12-01T09:41:10.313Z,978.39
2018-12-01T09:42:10.259Z,978.34
2018-12-01T09:43:10.153Z,978.32
2018-12-01T09:44:10.170Z,978.34
2018-12-01T09:45:09.991Z,978.32
2018-12-01T09:46:09.976Z,978.35
2018-12-01T09:47:09.828Z,978.32
2018-12-01T09:48:09.786Z,978.34
2018-12-01T09:49:09.673Z,978.37
2018-12-01T09:50:09.697Z,978.38
2018-12-01T09:51:09.512Z,978.38
2018-12-01T09:52:09.505Z,978.42
2018-12-01T09:53:09.351Z,978.40
2018-12-01T09:54:09.317Z,978.40
2018-12-01T09:55:09.206Z,978.37
2018-12-01T09:56:09.223Z,978.41
2018-12-01T09:57:09.036Z,978.36
2018-12-01T09:58:09.031Z,978.40
2018-12-01T09:59:08.875Z,978.35
2018-12-01T10:00:08.838Z,978.36
2018-12-01T10:01:08.719Z,978.36
2018-12-01T10:02:08.747Z,978.37
2018-12-01T10:03:08.558Z,978.38
2018-12-01T10:04:08.560Z,978.28
2018-12-01T10:05:08.400Z,978.34
2018-12-01T10:06:08.372Z,978.30
2018-12-01T10:07:08.239Z,978.30
2018-12-01T10:08:08.284Z,978.26
2018-12-01T10:09:08.084Z,978.25
2018-12-01T10:10:08.090Z,978.26
2018-12-01T10:11:07.921Z,978.24
2018-12-01T10:12:07.895Z,978.25
2018-12-01T10:13:07.770Z,978.29
2018-12-01T10:14:07.808Z,978.23
2018-12-01T10:15:07.607Z,978.25
2018-12-01T10:16:07.617Z,978.21
2018-12-01T10:17:07.456Z,978.22
2018-12-01T10:18:07.421Z,978.25
2018-12-01T10:19:07.292Z,978.29
2018-12-01T10:20:07.230Z,978.29
2018-12-01T10:21:07.133Z,978.26
2018-12-01T10:22:07.141Z,978.26
2018-12-01T10:23:06.976Z,978.24
2018-12-01T10:24:06.952Z,978.22
2018-12-01T10:25:06.820Z,978.19
2018-12-01T10:26:06.757Z,978.20
2018-12-01T10:27:06.662Z,978.18
2018-12-01T10:28:06.671Z,978.23
2018-12-01T10:29:06.505Z,978.19
2018-12-01T10:30:06.480Z,978.17
2018-12-01T10:31:06.344Z,978.13
2018-12-01T10:32:06.287Z,978.13
2018-12-01T10:33:06.192Z,978.16
2018-12-01T10:34:06.199Z,978.16
2018-12-01T10:35:06.033Z,978.12
2018-12-01T10:36:06.006Z,978.14
2018-12-01T10:37:05.875Z,978.14
2018-12-01T10:38:05.814Z,978.08
2018-12-01T10:39:05.723Z,978.07
2018-12-01T10:40:05.729Z,978.08
2018-12-01T10:41:05.560Z,978.07
2018-12-01T10:42:05.538Z,978.03
2018-12-01T10:43:05.400Z,978.01
2018-12-01T10:44:05.342Z,978.04
2018-12-01T10:45:05.264Z,978.04
2018-12-01T10:46:05.166Z,978.02
2018-12-01T10:47:05.087Z,978.01
2018-12-01T10:48:05.059Z,978.06
2018-12-01T10:49:04.929Z,978.02
2018-12-01T10:50:04.866Z,978.06
2018-12-01T10:51:04.772Z,978.08
2018-12-01T10:52:04.780Z,978.06
2018-12-01T10:53:04.614Z,978.08
2018-12-01T10:54:04.539Z,978.05
2018-12-01T10:55:05.019Z,978.07
2018-12-01T10:56:04.379Z,978.06
2018-12-01T10:57:04.459Z,978.02
2018-12-01T10:58:04.364Z,978.06
2018-12-01T10:59:04.141Z,978.03
2018-12-01T11:00:04.067Z,978.05
2018-12-01T11:01:04.019Z,978.00
2018-12-01T11:02:03.910Z,977.99
2018-12-01T11:03:03.932Z,977.97
2018-12-01T11:04:03.748Z,977.93
2018-12-01T11:05:03.742Z,977.89
2018-12-01T11:06:03.595Z,977.88
2018-12-01T11:07:03.546Z,977.86
2018-12-01T11:08:03.440Z,977.85
2018-12-01T11:09:03.457Z,977.87
2018-12-01T11:10:03.282Z,977.85
2018-12-01T11:11:03.268Z,977.83
2018-12-01T11:12:03.126Z,977.84
2018-12-01T11:13:03.077Z,977.80
2018-12-01T11:14:02.968Z,977.80
2018-12-01T11:15:02.986Z,977.75
2018-12-01T11:16:02.811Z,977.70
2018-12-01T11:17:02.793Z,977.73
2018-12-01T11:18:02.666Z,977.77
2018-12-01T11:19:02.600Z,977.78
2018-12-01T11:20:02.499Z,977.73
2018-12-01T11:21:02.510Z,977.76
2018-12-01T11:22:02.342Z,977.77
2018-12-01T11:23:02.334Z,977.78
2018-12-01T11:24:02.184Z,977.77
2018-12-01T11:25:02.130Z,977.78
2018-12-01T11:26:02.030Z,977.81
2018-12-01T11:27:02.041Z,977.76
2018-12-01T11:28:01.876Z,977.79
2018-12-01T11:29:01.849Z,977.79
2018-12-01T11:30:01.719Z,977.78
2018-12-01T11:31:01.659Z,977.80
2018-12-01T11:32:01.563Z,977.80
2018-12-01T11:33:01.571Z,977.81
2018-12-01T11:34:01.408Z,977.80
2018-12-01T11:35:01.379Z,977.79
2018-12-01T11:36:01.249Z,977.83
2018-12-01T11:37:01.288Z,977.81
2018-12-01T11:38:01.099Z,977.80
2018-12-01T11:39:01.095Z,977.83
2018-12-01T11:40:00.938Z,977.80
2018-12-01T11:41:00.865Z,977.78
2018-12-01T11:42:00.806Z,977.80
2018-12-01T11:43:00.707Z,977.77
2018-12-01T11:44:00.718Z,977.75
2018-12-01T11:45:00.550Z,977.72
2018-12-01T11:46:00.529Z,977.71
2018-12-01T11:47:00.392Z,977.75
2018-12-01T11:48:00.337Z,977.76
2018-12-01T11:49:00.238Z,977.73
2018-12-01T11:50:00.160Z,977.76
2018-12-01T11:51:00.151Z,977.73
2018-12-01T11:52:00.006Z,977.75
2018-12-01T11:52:59.960Z,977.72
2018-12-01T11:53:59.845Z,977.73
2018-12-01T11:54:59.870Z,977.74
2018-12-01T11:55:59.693Z,977.73
2018-12-01T11:56:59.677Z,977.74
2018-12-01T11:57:59.536Z,977.74
2018-12-01T11:58:59.493Z,977.75
2018-12-01T11:59:59.380Z,977.75
2018-12-01T12:00:59.304Z,977.74
2018-12-01T12:02:00.610Z,977.70
2018-12-01T12:02:59.151Z,977.72
2018-12-01T12:03:59.108Z,977.72
2018-12-01T12:04:58.993Z,977.68
2018-12-01T12:05:59.021Z,977.69
2018-12-01T12:06:58.837Z,977.66
2018-12-01T12:07:58.792Z,977.63
2018-12-01T12:08:58.682Z,977.62
2018-12-01T12:09:58.711Z,977.61
2018-12-01T12:10:58.525Z,977.55
2018-12-01T12:11:58.548Z,977.54
2018-12-01T12:12:58.369Z,977.51
2018-12-01T12:13:58.357Z,977.50
2018-12-01T12:14:58.217Z,977.47
2018-12-01T12:15:58.165Z,977.44
2018-12-01T12:16:58.058Z,977.43
2018-12-01T12:17:58.078Z,977.44
2018-12-01T12:18:57.901Z,977.41
2018-12-01T12:19:57.884Z,977.42
2018-12-01T12:20:57.750Z,977.37
2018-12-01T12:21:57.692Z,977.36
2018-12-01T12:22:57.593Z,977.36
2018-12-01T12:23:57.606Z,977.32
2018-12-01T12:24:57.435Z,977.33
2018-12-01T12:25:57.413Z,977.35
2018-12-01T12:26:57.289Z,977.41
2018-12-01T12:27:57.222Z,977.39